createdAt,value
2019-03-19T00:01:52.822Z,6.20
2019-03-19T00:04:20.469Z,5.83
2019-03-19T00:06:47.633Z,6.33
2019-03-19T00:09:34.142Z,6.97
2019-03-19T00:12:20.818Z,7.27
2019-03-19T00:15:07.516Z,6.70
2019-03-19T00:17:34.693Z,6.53
2019-03-19T00:20:21.389Z,6.77
2019-03-19T00:23:07.899Z,5.57
2019-03-19T00:25:54.603Z,6.10
2019-03-19T00:28:41.329Z,5.70
2019-03-19T00:31:27.745Z,5.90
2019-03-19T00:33:55.085Z,5.47
2019-03-19T00:36:22.070Z,5.67
2019-03-19T00:38:49.084Z,6.10
2019-03-19T00:41:44.392Z,6.27
2019-03-19T00:44:31.066Z,5.50
2019-03-19T00:47:17.503Z,6.10
2019-03-19T00:50:04.421Z,5.80
2019-03-19T00:52:51.171Z,5.43
2019-03-19T00:55:40.999Z,5.90
2019-03-19T00:58:26.134Z,5.70
2019-03-19T01:01:12.714Z,5.70
2019-03-19T01:03:59.181Z,5.70
2019-03-19T01:06:39.109Z,5.43
2019-03-19T01:09:19.296Z,5.67
2019-03-19T01:11:58.600Z,5.67
2019-03-19T01:14:38.598Z,6.03
2019-03-19T01:17:17.713Z,5.63
2019-03-19T01:19:57.674Z,5.90
2019-03-19T01:22:24.434Z,5.87
2019-03-19T01:25:10.867Z,5.40
2019-03-19T01:27:57.272Z,5.30
2019-03-19T01:30:43.682Z,5.70
2019-03-19T01:33:30.154Z,5.30
2019-03-19T01:36:16.557Z,5.13
2019-03-19T01:39:04.874Z,5.30
2019-03-19T01:41:51.608Z,5.80
2019-03-19T01:44:37.995Z,6.10
2019-03-19T01:47:24.651Z,5.90
2019-03-19T01:50:11.427Z,5.83
2019-03-19T01:52:38.608Z,5.50
2019-03-19T01:55:25.713Z,6.10
2019-03-19T01:58:13.305Z,6.13
2019-03-19T02:00:59.698Z,5.87
2019-03-19T02:03:46.342Z,6.17
2019-03-19T02:06:26.284Z,6.00
2019-03-19T02:09:06.758Z,6.37
2019-03-19T02:11:46.283Z,6.57
2019-03-19T02:14:26.240Z,5.87
2019-03-19T02:17:06.338Z,6.77
2019-03-19T02:19:46.370Z,6.37
2019-03-19T02:22:26.735Z,6.67
2019-03-19T02:25:06.809Z,6.70
2019-03-19T02:27:46.856Z,6.37
2019-03-19T02:30:26.883Z,6.40
2019-03-19T02:33:07.083Z,6.37
2019-03-19T02:35:47.061Z,5.83
2019-03-19T02:38:27.201Z,6.13
2019-03-19T02:41:07.445Z,6.73
2019-03-19T02:43:47.169Z,7.47
2019-03-19T02:46:27.390Z,7.03
2019-03-19T02:49:07.572Z,7.70
2019-03-19T02:51:47.618Z,7.90
2019-03-19T02:54:27.558Z,8.17
2019-03-19T02:57:07.579Z,8.73
2019-03-19T02:59:47.699Z,7.63
2019-03-19T03:02:14.549Z,7.60
2019-03-19T03:04:41.306Z,7.47
2019-03-19T03:07:27.791Z,6.73
2019-03-19T03:09:54.681Z,7.00
2019-03-19T03:12:41.285Z,6.47
2019-03-19T03:15:27.783Z,6.77
2019-03-19T03:18:14.173Z,7.17
2019-03-19T03:21:00.582Z,7.50
2019-03-19T03:23:46.996Z,6.73
2019-03-19T03:26:46.777Z,6.63
2019-03-19T03:29:22.462Z,7.20
2019-03-19T03:32:08.897Z,6.07
2019-03-19T03:34:55.359Z,5.90
2019-03-19T03:37:42.097Z,6.30
2019-03-19T03:40:10.280Z,6.03
2019-03-19T03:42:56.950Z,7.20
2019-03-19T03:45:43.369Z,6.70
2019-03-19T03:48:29.858Z,6.53
2019-03-19T03:51:16.287Z,6.40
2019-03-19T03:54:02.814Z,6.40
2019-03-19T03:57:01.386Z,7.03
2019-03-19T03:59:38.122Z,6.70
2019-03-19T04:02:05.084Z,7.10
2019-03-19T04:04:44.318Z,6.77
2019-03-19T04:07:24.671Z,6.30
2019-03-19T04:10:04.519Z,6.80
2019-03-19T04:12:44.460Z,6.73
2019-03-19T04:15:24.563Z,6.53
2019-03-19T04:18:04.447Z,6.70
2019-03-19T04:20:31.205Z,7.10
2019-03-19T04:23:18.043Z,6.53
2019-03-19T04:26:04.585Z,6.03
2019-03-19T04:28:31.313Z,5.80
2019-03-19T04:31:17.730Z,5.40
2019-03-19T04:34:04.316Z,6.40
2019-03-19T04:36:50.739Z,6.90
2019-03-19T04:39:17.482Z,6.43
2019-03-19T04:42:04.257Z,6.93
2019-03-19T04:44:50.764Z,6.73
2019-03-19T04:47:37.192Z,7.00
2019-03-19T04:50:24.323Z,6.73
2019-03-19T04:53:10.785Z,7.07
2019-03-19T04:55:57.430Z,7.23
2019-03-19T04:58:44.104Z,7.23
2019-03-19T05:01:30.516Z,7.17
2019-03-19T05:04:17.281Z,7.80
2019-03-19T05:06:44.075Z,7.30
2019-03-19T05:09:30.469Z,7.73
2019-03-19T05:12:16.912Z,6.93
2019-03-19T05:15:03.706Z,7.33
2019-03-19T05:17:50.142Z,8.03
2019-03-19T05:20:36.547Z,7.40
2019-03-19T05:23:23.497Z,7.40
2019-03-19T05:25:50.238Z,8.20
2019-03-19T05:28:17.122Z,8.27
2019-03-19T05:31:03.876Z,7.40
2019-03-19T05:33:30.692Z,6.23
2019-03-19T05:36:17.093Z,6.63
2019-03-19T05:39:05.054Z,7.10
2019-03-19T05:41:51.468Z,6.63
2019-03-19T05:44:37.891Z,7.63
2019-03-19T05:47:24.322Z,7.63
2019-03-19T05:50:10.929Z,8.03
2019-03-19T05:52:57.591Z,7.60
2019-03-19T05:55:43.985Z,7.23
2019-03-19T05:58:30.456Z,7.77
2019-03-19T06:01:16.869Z,8.87
2019-03-19T06:04:03.356Z,8.50
2019-03-19T06:06:43.461Z,8.37
2019-03-19T06:09:23.553Z,8.40
2019-03-19T06:12:02.954Z,7.73
2019-03-19T06:14:42.837Z,7.80
2019-03-19T06:17:22.977Z,7.90
2019-03-19T06:20:03.099Z,7.73
2019-03-19T06:22:43.132Z,7.90
2019-03-19T06:25:23.333Z,7.53
2019-03-19T06:28:03.576Z,7.97
2019-03-19T06:30:43.482Z,8.47
2019-03-19T06:33:23.465Z,7.17
2019-03-19T06:39:15.957Z,6.37
2019-03-19T06:41:55.773Z,6.83
2019-03-19T06:44:35.682Z,6.60
2019-03-19T06:47:15.728Z,6.97
2019-03-19T06:49:55.866Z,8.20
2019-03-19T06:52:35.871Z,8.23
2019-03-19T06:55:16.025Z,8.63
2019-03-19T06:57:56.069Z,8.07
2019-03-19T07:00:36.197Z,9.03
2019-03-19T07:03:16.518Z,11.10
2019-03-19T07:05:56.505Z,10.37
2019-03-19T07:08:36.514Z,10.43
2019-03-19T07:17:16.196Z,9.10
2019-03-19T07:22:54.309Z,9.97
2019-03-19T07:25:34.368Z,9.93
2019-03-19T07:28:22.049Z,10.00
2019-03-19T07:30:56.628Z,8.90
2019-03-19T07:33:36.641Z,9.07
2019-03-19T07:36:16.849Z,8.60
2019-03-19T07:38:56.845Z,9.93
2019-03-19T07:41:37.000Z,12.15
2019-03-19T07:44:16.869Z,13.55
2019-03-19T07:46:45.851Z,11.28
2019-03-19T07:49:31.900Z,10.55
2019-03-19T07:52:18.302Z,10.78
2019-03-19T07:55:04.712Z,10.30
2019-03-19T07:57:51.181Z,10.65
2019-03-19T08:00:37.694Z,11.18
2019-03-19T08:03:24.100Z,10.45
2019-03-19T08:06:03.524Z,10.65
2019-03-19T08:08:43.509Z,10.85
2019-03-19T08:11:23.655Z,10.63
2019-03-19T08:14:03.685Z,10.40
2019-03-19T08:16:43.593Z,10.48
2019-03-19T08:19:23.461Z,10.58
2019-03-19T08:22:03.413Z,10.63
2019-03-19T08:24:43.486Z,10.55
2019-03-19T08:27:23.435Z,8.60
2019-03-19T08:33:14.782Z,8.88
2019-03-19T08:35:54.712Z,7.35
2019-03-19T08:38:34.689Z,8.25
2019-03-19T08:41:14.841Z,9.33
2019-03-19T08:43:54.857Z,8.45
2019-03-19T08:46:34.982Z,8.10
2019-03-19T08:49:15.175Z,8.55
2019-03-19T08:51:54.397Z,8.73
2019-03-19T08:54:34.434Z,8.70
2019-03-19T08:57:14.473Z,8.90
2019-03-19T08:59:53.701Z,8.03
2019-03-19T09:02:33.622Z,8.20
2019-03-19T09:05:02.873Z,8.70
2019-03-19T09:07:48.712Z,8.25
2019-03-19T09:10:35.145Z,8.88
2019-03-19T09:13:21.657Z,9.78
2019-03-19T09:15:48.408Z,9.18
2019-03-19T09:18:34.837Z,8.98
2019-03-19T09:21:21.248Z,8.60
2019-03-19T09:24:07.762Z,8.73
2019-03-19T09:26:54.280Z,8.88
2019-03-19T09:29:21.028Z,8.85
2019-03-19T09:32:07.672Z,8.55
2019-03-19T09:34:54.077Z,8.23
2019-03-19T09:37:44.558Z,8.20
2019-03-19T09:40:28.788Z,7.08
2019-03-19T09:43:15.201Z,7.30
2019-03-19T09:46:01.693Z,7.05
2019-03-19T09:48:48.105Z,7.12
2019-03-19T09:51:34.604Z,5.58
2019-03-19T09:54:21.240Z,6.90
2019-03-19T09:57:07.677Z,5.17
2019-03-19T09:59:54.089Z,6.08
2019-03-19T10:02:40.585Z,6.45
2019-03-19T10:05:27.100Z,5.75
2019-03-19T10:08:13.520Z,4.20
2019-03-19T10:11:00.031Z,3.02
2019-03-19T10:13:46.492Z,3.40
2019-03-19T10:16:33.028Z,3.90
2019-03-19T10:19:19.602Z,3.95
2019-03-19T10:21:46.404Z,3.47
2019-03-19T10:24:33.125Z,3.85
2019-03-19T10:27:19.796Z,4.08
2019-03-19T10:30:08.721Z,4.20
2019-03-19T10:32:55.126Z,3.30
2019-03-19T10:35:41.522Z,3.25
2019-03-19T10:38:28.004Z,3.50
2019-03-19T10:41:14.409Z,3.50
2019-03-19T10:44:00.931Z,3.40
2019-03-19T10:46:47.580Z,3.05
2019-03-19T10:49:33.988Z,2.95
2019-03-19T10:52:20.394Z,3.08
2019-03-19T10:55:06.898Z,2.80
2019-03-19T10:57:33.832Z,3.02
2019-03-19T11:00:20.381Z,3.40
2019-03-19T11:03:06.885Z,3.10
2019-03-19T11:05:47.025Z,2.80
2019-03-19T11:08:27.113Z,2.92
2019-03-19T11:11:06.445Z,2.70
2019-03-19T11:13:46.554Z,2.30
2019-03-19T11:16:26.557Z,2.40
2019-03-19T11:19:06.590Z,2.67
2019-03-19T11:21:46.686Z,2.58
2019-03-19T11:24:13.475Z,2.92
2019-03-19T11:26:59.890Z,2.40
2019-03-19T11:29:46.557Z,2.42
2019-03-19T11:32:13.341Z,2.45
2019-03-19T11:34:59.760Z,3.00
2019-03-19T11:37:46.253Z,2.35
2019-03-19T11:40:32.796Z,3.10
2019-03-19T11:43:19.239Z,2.72
2019-03-19T11:46:06.065Z,2.80
2019-03-19T11:48:52.748Z,4.75
2019-03-19T11:51:39.409Z,2.33
2019-03-19T11:54:25.920Z,2.70
2019-03-19T11:57:12.330Z,2.90
2019-03-19T11:59:58.862Z,3.52
2019-03-19T12:02:45.293Z,2.62
2019-03-19T12:05:31.856Z,2.67
2019-03-19T12:08:11.324Z,2.80
2019-03-19T12:10:51.334Z,4.30
2019-03-19T12:13:31.258Z,2.42
2019-03-19T12:16:11.545Z,2.25
2019-03-19T12:18:51.620Z,1.98
2019-03-19T12:21:18.372Z,3.47
2019-03-19T12:23:45.144Z,3.72
2019-03-19T12:26:31.556Z,2.10
2019-03-19T12:29:17.970Z,2.50
2019-03-19T12:32:04.384Z,2.30
2019-03-19T12:34:31.110Z,3.65
2019-03-19T12:37:17.521Z,2.20
2019-03-19T12:40:04.963Z,2.17
2019-03-19T12:42:31.712Z,2.40
2019-03-19T12:45:18.248Z,2.30
2019-03-19T12:48:05.020Z,10.70
2019-03-19T12:50:51.688Z,3.42
2019-03-19T12:53:38.094Z,2.55
2019-03-19T12:56:24.648Z,2.70
2019-03-19T12:59:19.801Z,2.55
2019-03-19T13:01:59.354Z,2.35
2019-03-19T13:04:45.901Z,2.20
2019-03-19T13:07:25.844Z,2.40
2019-03-19T13:09:52.693Z,2.22
2019-03-19T13:12:39.121Z,2.42
2019-03-19T13:15:06.453Z,2.35
2019-03-19T13:17:52.877Z,2.22
2019-03-19T13:20:39.269Z,2.12
2019-03-19T13:23:26.353Z,3.30
2019-03-19T13:25:56.692Z,2.40
2019-03-19T13:28:53.741Z,2.40
2019-03-19T13:31:40.184Z,2.25
2019-03-19T13:34:06.936Z,2.10
2019-03-19T13:36:33.691Z,2.92
2019-03-19T13:39:00.537Z,2.62
2019-03-19T13:41:46.940Z,2.47
2019-03-19T13:44:13.719Z,2.37
2019-03-19T13:47:00.385Z,2.30
2019-03-19T13:49:46.805Z,2.75
2019-03-19T13:52:33.325Z,2.60
2019-03-19T13:55:00.064Z,2.37
2019-03-19T13:57:46.578Z,2.15
2019-03-19T14:00:33.078Z,2.35
2019-03-19T14:03:19.750Z,2.35
2019-03-19T14:05:59.066Z,2.27
2019-03-19T14:08:25.986Z,2.70
2019-03-19T14:11:12.385Z,2.37
2019-03-19T14:13:59.061Z,2.85
2019-03-19T14:16:25.797Z,2.77
2019-03-19T14:18:52.528Z,2.45
2019-03-19T14:21:39.101Z,2.55
2019-03-19T14:24:25.668Z,2.92
2019-03-19T14:27:12.062Z,2.55
2019-03-19T14:29:58.810Z,2.47
2019-03-19T14:32:45.220Z,2.40
2019-03-19T14:35:37.322Z,2.00
2019-03-19T14:38:20.058Z,2.10
2019-03-19T14:41:06.554Z,2.20
2019-03-19T14:43:52.984Z,2.50
2019-03-19T14:46:39.382Z,2.50
2019-03-19T14:49:25.801Z,2.35
2019-03-19T14:52:12.177Z,2.65
2019-03-19T14:54:58.747Z,2.05
2019-03-19T14:57:45.278Z,2.27
2019-03-19T15:00:31.779Z,1.75
2019-03-19T15:03:18.198Z,2.67
2019-03-19T15:05:57.982Z,2.00
2019-03-19T15:08:38.067Z,2.47
2019-03-19T15:11:18.239Z,2.33
2019-03-19T15:13:45.024Z,2.35
2019-03-19T15:16:11.769Z,2.50
2019-03-19T15:18:58.176Z,3.60
2019-03-19T15:21:44.669Z,2.20
2019-03-19T15:24:11.449Z,2.20
2019-03-19T15:26:57.959Z,2.30
2019-03-19T15:29:44.475Z,1.92
2019-03-19T15:32:11.217Z,2.50
2019-03-19T15:34:38.264Z,2.20
2019-03-19T15:37:24.793Z,2.33
2019-03-19T15:39:51.681Z,1.70
2019-03-19T15:42:38.277Z,2.00
2019-03-19T15:45:24.711Z,1.98
2019-03-19T15:48:11.449Z,2.00
2019-03-19T15:50:38.213Z,2.20
2019-03-19T15:53:24.625Z,2.70
2019-03-19T15:56:11.212Z,2.45
2019-03-19T15:58:57.943Z,2.55
2019-03-19T16:01:44.353Z,2.50
2019-03-19T16:04:30.765Z,2.20
2019-03-19T16:07:10.197Z,1.87
2019-03-19T16:09:37.098Z,1.80
2019-03-19T16:12:04.200Z,1.90
2019-03-19T16:15:04.751Z,1.42
2019-03-19T16:17:53.901Z,1.45
2019-03-19T16:20:21.168Z,1.35
2019-03-19T16:23:07.714Z,1.70
2019-03-19T16:25:54.134Z,1.60
2019-03-19T16:28:40.772Z,1.77
2019-03-19T16:31:27.174Z,2.00
2019-03-19T16:34:13.693Z,1.87
2019-03-19T16:37:00.141Z,2.27
2019-03-19T16:39:46.543Z,2.12
2019-03-19T16:42:33.084Z,1.60
2019-03-19T16:45:19.631Z,1.77
2019-03-19T16:48:06.038Z,1.82
2019-03-19T16:50:52.434Z,1.80
2019-03-19T16:53:39.013Z,1.80
2019-03-19T16:56:25.666Z,2.40
2019-03-19T16:59:12.162Z,3.02
2019-03-19T17:02:01.731Z,3.50
2019-03-19T17:04:47.284Z,6.78
2019-03-19T17:07:26.723Z,5.05
2019-03-19T17:10:06.946Z,4.57
2019-03-19T17:15:47.877Z,3.60
2019-03-19T17:18:27.702Z,2.60
2019-03-19T17:21:08.137Z,2.23
2019-03-19T17:23:47.979Z,3.30
2019-03-19T17:29:29.934Z,4.25
2019-03-19T17:40:59.213Z,2.33
2019-03-19T17:43:45.991Z,2.30
2019-03-19T17:46:32.513Z,5.17
2019-03-19T17:49:18.989Z,5.53
2019-03-19T17:52:05.518Z,4.70
2019-03-19T17:54:51.908Z,4.47
2019-03-19T17:57:18.798Z,4.20
2019-03-19T18:00:05.928Z,3.77
2019-03-19T18:02:52.459Z,3.27
2019-03-19T18:05:38.873Z,3.77
2019-03-19T18:08:18.226Z,4.40
2019-03-19T18:10:58.546Z,4.23
2019-03-19T18:13:38.373Z,4.33
2019-03-19T18:16:18.482Z,4.23
2019-03-19T18:18:58.532Z,3.33
2019-03-19T18:27:52.117Z,2.83
2019-03-19T18:30:31.288Z,2.90
2019-03-19T18:33:10.626Z,3.17
2019-03-19T18:35:53.170Z,5.50
2019-03-19T18:38:32.617Z,5.43
2019-03-19T18:41:13.092Z,5.03
2019-03-19T18:43:52.552Z,5.90
2019-03-19T18:46:32.842Z,5.90
2019-03-19T18:49:12.891Z,8.60
2019-03-19T18:51:52.755Z,7.10
2019-03-19T18:54:32.630Z,6.20
2019-03-19T18:57:12.777Z,5.00
2019-03-19T18:59:52.894Z,11.60
2019-03-19T19:05:45.314Z,8.50
2019-03-19T19:08:25.598Z,7.03
2019-03-19T19:11:04.761Z,2.80
2019-03-19T19:13:43.978Z,2.50
2019-03-19T19:16:23.995Z,2.67
2019-03-19T19:22:02.677Z,2.50
2019-03-19T19:24:42.663Z,3.80
2019-03-19T19:27:22.441Z,3.40
2019-03-19T19:30:02.502Z,2.90
2019-03-19T19:32:42.846Z,2.97
2019-03-19T19:35:22.852Z,3.07
2019-03-19T19:38:03.604Z,6.17
2019-03-19T19:43:42.014Z,14.57
2019-03-19T19:46:21.457Z,13.37
2019-03-19T19:49:01.475Z,7.70
2019-03-19T19:51:41.563Z,3.50
2019-03-19T19:54:21.784Z,4.47
2019-03-19T19:57:01.560Z,4.40
2019-03-19T19:59:41.775Z,4.17
2019-03-19T20:02:21.904Z,3.50
2019-03-19T20:05:03.295Z,5.10
2019-03-19T20:07:42.880Z,6.43
2019-03-19T20:10:23.016Z,4.43
2019-03-19T20:13:03.181Z,3.40
2019-03-19T20:15:43.374Z,3.53
2019-03-19T20:18:23.632Z,4.07
2019-03-19T20:21:03.556Z,3.97
2019-03-19T20:23:43.376Z,3.80
2019-03-19T20:26:23.218Z,3.50
2019-03-19T20:29:03.649Z,4.03
2019-03-19T20:31:43.582Z,3.80
2019-03-19T20:34:23.648Z,3.87
2019-03-19T20:37:03.764Z,3.83
2019-03-19T20:39:43.795Z,4.10
2019-03-19T20:42:23.829Z,4.13
2019-03-19T20:45:03.730Z,4.13
2019-03-19T20:47:43.943Z,3.83
2019-03-19T20:50:24.062Z,4.20
2019-03-19T20:53:04.067Z,3.83
2019-03-19T20:55:43.783Z,4.13
2019-03-19T20:58:24.222Z,5.07
2019-03-19T21:01:04.211Z,5.07
2019-03-19T21:03:44.161Z,4.90
2019-03-19T21:06:24.289Z,8.90
2019-03-19T21:09:04.346Z,4.50
2019-03-19T21:11:44.198Z,4.57
2019-03-19T21:14:24.188Z,5.30
2019-03-19T21:17:04.476Z,4.30
2019-03-19T21:19:44.534Z,5.27
2019-03-19T21:22:24.651Z,6.67
2019-03-19T21:24:51.607Z,4.50
2019-03-19T21:27:38.158Z,4.30
2019-03-19T21:30:24.603Z,4.33
2019-03-19T21:33:11.101Z,4.30
2019-03-19T21:35:57.953Z,4.30
2019-03-19T21:38:44.811Z,4.17
2019-03-19T21:41:31.525Z,4.50
2019-03-19T21:44:18.154Z,4.60
2019-03-19T21:47:04.791Z,4.30
2019-03-19T21:49:51.493Z,4.70
2019-03-19T21:52:38.019Z,4.30
2019-03-19T21:55:24.778Z,4.50
2019-03-19T21:58:11.621Z,4.20
2019-03-19T22:00:58.159Z,3.97
2019-03-19T22:03:44.618Z,3.83
2019-03-19T22:06:31.185Z,4.20
2019-03-19T22:09:18.038Z,4.50
2019-03-19T22:12:04.572Z,4.63
2019-03-19T22:14:51.370Z,4.30
2019-03-19T22:17:38.474Z,4.87
2019-03-19T22:20:25.207Z,4.63
2019-03-19T22:23:11.756Z,4.80
2019-03-19T22:25:58.450Z,4.33
2019-03-19T22:28:45.066Z,4.97
2019-03-19T22:31:31.939Z,5.10
2019-03-19T22:34:18.824Z,5.23
2019-03-19T22:37:07.405Z,4.27
2019-03-19T22:39:53.919Z,4.13
2019-03-19T22:42:40.561Z,4.70
2019-03-19T22:45:27.046Z,4.30
2019-03-19T22:48:14.136Z,4.47
2019-03-19T22:51:00.913Z,7.13
2019-03-19T22:53:47.414Z,8.83
2019-03-19T22:56:33.973Z,5.30
2019-03-19T22:59:20.385Z,4.40
2019-03-19T23:05:15.042Z,4.23
2019-03-19T23:07:54.704Z,4.00
2019-03-19T23:10:33.954Z,4.00
2019-03-19T23:13:14.007Z,3.83
2019-03-19T23:15:53.991Z,3.77
2019-03-19T23:18:34.378Z,4.23
2019-03-19T23:21:13.983Z,4.30
2019-03-19T23:23:54.488Z,4.10
2019-03-19T23:26:34.585Z,4.53
2019-03-19T23:29:14.628Z,4.70
2019-03-19T23:31:54.521Z,5.20
2019-03-19T23:34:38.763Z,4.53
2019-03-19T23:37:16.597Z,3.87
2019-03-19T23:39:55.905Z,3.57
2019-03-19T23:42:36.378Z,4.23
2019-03-19T23:45:16.254Z,3.63
2019-03-19T23:47:56.062Z,4.17
2019-03-19T23:50:36.166Z,4.03
2019-03-19T23:53:16.714Z,4.30
2019-03-19T23:55:56.222Z,4.20
2019-03-19T23:58:36.153Z,4.50
